Time;durP1;ratioP1;P1;durP2;ratioP2;P2;SDS_P1;SDS_P2;PMS_P1;PMS_P2;Temp;Humidity;BMP_temperature;BMP_pressure;BME280_temperature;BME280_humidity;BME280_pressure;Samples;Min_cycle;Max_cycle;Signal;HPM_P1;HPM_P2
2022/10/28 00:01:58;;;;;;;13.88;3.92;;;;;;;;;;4983237;28;20412;-60
2022/10/28 00:04:23;;;;;;;11.15;4.00;;;;;;;;;;4996086;28;20038;-61
2022/10/28 00:06:49;;;;;;;11.63;4.55;;;;;;;;;;4971011;28;20065;-61
2022/10/28 00:09:14;;;;;;;7.60;3.92;;;;;;;;;;5017866;28;20088;-61
2022/10/28 00:11:39;;;;;;;11.70;3.75;;;;;;;;;;5005607;28;20463;-61
2022/10/28 00:14:06;;;;;;;8.68;4.13;;;;;;;;;;4998396;28;20166;-61
2022/10/28 00:16:34;;;;;;;7.65;3.63;;;;;;;;;;4984716;28;20039;-61
2022/10/28 00:19:00;;;;;;;8.40;4.00;;;;;;;;;;4988960;28;20056;-60
2022/10/28 00:21:29;;;;;;;11.27;4.10;;;;;;;;;;4995819;28;20042;-61
2022/10/28 00:23:55;;;;;;;11.57;3.90;;;;;;;;;;4992396;28;20046;-61
2022/10/28 00:26:26;;;;;;;9.32;3.80;;;;;;;;;;4994926;28;20062;-61
2022/10/28 00:28:58;;;;;;;9.60;4.10;;;;;;;;;;4986375;28;20030;-61
2022/10/28 00:31:25;;;;;;;10.55;4.10;;;;;;;;;;4992190;28;20054;-61
2022/10/28 00:33:51;;;;;;;11.02;4.20;;;;;;;;;;4978682;28;20042;-61
2022/10/28 00:36:24;;;;;;;9.50;3.83;;;;;;;;;;4994963;28;20479;-61
2022/10/28 00:38:51;;;;;;;10.48;4.00;;;;;;;;;;4985104;28;20138;-61
2022/10/28 00:41:26;;;;;;;11.20;3.30;;;;;;;;;;5002042;28;20105;-61
2022/10/28 00:44:13;;;;;;;8.50;3.92;;;;;;;;;;4974601;28;21858;-61
2022/10/28 00:46:43;;;;;;;12.65;4.00;;;;;;;;;;4975424;28;20086;-61
2022/10/28 00:49:21;;;;;;;8.80;3.50;;;;;;;;;;4985550;28;20042;-61
2022/10/28 00:51:49;;;;;;;11.98;3.70;;;;;;;;;;4990363;28;20038;-61
2022/10/28 00:54:16;;;;;;;13.88;3.80;;;;;;;;;;5014816;28;20080;-62
2022/10/28 00:56:44;;;;;;;11.10;4.03;;;;;;;;;;4993782;28;20038;-62
2022/10/28 00:59:17;;;;;;;12.48;3.60;;;;;;;;;;5014426;28;20034;-62
2022/10/28 01:01:43;;;;;;;11.70;3.40;;;;;;;;;;4977991;28;20033;-62
2022/10/28 01:04:09;;;;;;;10.43;3.85;;;;;;;;;;4992036;28;20382;-62
2022/10/28 01:06:35;;;;;;;9.43;3.55;;;;;;;;;;5001216;28;20032;-62
2022/10/28 01:09:00;;;;;;;8.52;3.88;;;;;;;;;;4997774;28;20116;-62
2022/10/28 01:11:53;;;;;;;7.32;3.40;;;;;;;;;;4982213;28;20066;-61
2022/10/28 01:14:51;;;;;;;14.23;4.10;;;;;;;;;;4987157;28;20031;-61
2022/10/28 01:17:41;;;;;;;6.28;3.17;;;;;;;;;;4985950;28;20043;-61
2022/10/28 01:20:37;;;;;;;13.82;3.92;;;;;;;;;;4979051;28;21447;-61
2022/10/28 01:23:20;;;;;;;10.90;3.63;;;;;;;;;;4997784;28;20046;-61
2022/10/28 01:25:56;;;;;;;11.25;3.55;;;;;;;;;;4987393;28;20104;-61
2022/10/28 01:28:27;;;;;;;11.27;3.60;;;;;;;;;;5006463;28;20041;-61
2022/10/28 01:31:00;;;;;;;8.40;3.72;;;;;;;;;;4989866;28;20632;-61
2022/10/28 01:33:35;;;;;;;7.20;3.45;;;;;;;;;;4993800;28;20538;-61
2022/10/28 01:36:12;;;;;;;12.38;3.88;;;;;;;;;;4996920;28;20048;-61
2022/10/28 01:38:49;;;;;;;10.15;3.70;;;;;;;;;;4974139;28;20026;-62
2022/10/28 01:41:20;;;;;;;13.57;4.00;;;;;;;;;;4982603;28;20069;-61
2022/10/28 01:44:03;;;;;;;10.18;3.45;;;;;;;;;;4991913;28;20045;-61
2022/10/28 01:46:55;;;;;;;9.32;3.70;;;;;;;;;;4979818;28;20031;-61
2022/10/28 01:49:33;;;;;;;10.30;3.50;;;;;;;;;;4981043;28;20030;-61
2022/10/28 01:52:03;;;;;;;10.70;3.60;;;;;;;;;;4984709;28;20037;-61
2022/10/28 01:54:32;;;;;;;7.25;3.25;;;;;;;;;;4992753;28;20062;-61
2022/10/28 01:57:00;;;;;;;13.30;3.60;;;;;;;;;;4992837;28;20073;-61
2022/10/28 01:59:27;;;;;;;9.63;3.72;;;;;;;;;;5009144;28;20034;-61
2022/10/28 02:01:54;;;;;;;10.25;3.75;;;;;;;;;;4979633;28;20035;-61
2022/10/28 02:04:19;;;;;;;13.23;3.53;;;;;;;;;;4988196;28;20037;-61
2022/10/28 02:06:49;;;;;;;14.25;3.60;;;;;;;;;;4994817;28;20336;-61
2022/10/28 02:10:03;;;;;;;10.02;3.65;;;;;;;;;;4998960;28;20045;-61
2022/10/28 02:12:33;;;;;;;7.97;3.40;;;;;;;;;;4985039;28;20039;-61
2022/10/28 02:15:23;;;;;;;11.93;3.50;;;;;;;;;;4981784;28;20034;-61
2022/10/28 02:18:11;;;;;;;10.07;3.55;;;;;;;;;;5002519;28;20033;-61
2022/10/28 02:20:58;;;;;;;14.85;3.50;;;;;;;;;;4984662;28;20093;-61
2022/10/28 02:23:34;;;;;;;8.95;3.20;;;;;;;;;;4973836;28;20496;-61
2022/10/28 02:26:09;;;;;;;9.35;3.25;;;;;;;;;;4987047;28;20030;-61
2022/10/28 02:29:04;;;;;;;13.57;3.42;;;;;;;;;;5013173;28;20386;-61
2022/10/28 02:31:44;;;;;;;9.65;3.22;;;;;;;;;;4987927;28;20030;-60
2022/10/28 02:34:20;;;;;;;10.88;3.22;;;;;;;;;;5010323;28;20375;-60
2022/10/28 02:36:50;;;;;;;10.90;3.10;;;;;;;;;;4995646;28;20041;-61
2022/10/28 02:39:20;;;;;;;15.95;3.22;;;;;;;;;;5009904;28;20427;-61
2022/10/28 02:41:54;;;;;;;10.32;3.20;;;;;;;;;;4995605;28;20042;-61
2022/10/28 02:44:28;;;;;;;13.48;3.38;;;;;;;;;;5008332;28;20038;-60
2022/10/28 02:46:59;;;;;;;12.02;3.25;;;;;;;;;;4993840;28;20033;-61
2022/10/28 02:49:26;;;;;;;9.07;3.42;;;;;;;;;;5006548;28;20144;-61
2022/10/28 02:51:56;;;;;;;9.57;3.25;;;;;;;;;;4988872;28;20034;-61
2022/10/28 02:54:43;;;;;;;13.82;3.05;;;;;;;;;;4991066;28;20172;-61
2022/10/28 02:57:16;;;;;;;7.88;3.22;;;;;;;;;;4980225;28;20039;-61
2022/10/28 02:59:41;;;;;;;9.32;3.28;;;;;;;;;;4976646;28;20491;-61
2022/10/28 03:02:07;;;;;;;9.13;3.47;;;;;;;;;;4973654;28;20038;-60
2022/10/28 03:04:33;;;;;;;9.95;3.30;;;;;;;;;;4982918;28;20039;-61
2022/10/28 03:06:58;;;;;;;10.25;3.50;;;;;;;;;;4988006;28;20719;-61
2022/10/28 03:09:24;;;;;;;9.68;3.30;;;;;;;;;;5007599;28;20044;-61
2022/10/28 03:11:49;;;;;;;13.48;3.83;;;;;;;;;;4993130;28;20126;-61
2022/10/28 03:14:14;;;;;;;12.27;3.65;;;;;;;;;;4990867;28;20046;-61
2022/10/28 03:16:40;;;;;;;7.88;2.92;;;;;;;;;;5010566;28;20041;-61
2022/10/28 03:19:05;;;;;;;15.48;3.55;;;;;;;;;;4984419;28;20439;-61
2022/10/28 03:21:31;;;;;;;9.13;3.33;;;;;;;;;;5003400;28;20035;-61
2022/10/28 03:23:56;;;;;;;6.97;3.78;;;;;;;;;;4993032;28;20042;-61
2022/10/28 03:26:21;;;;;;;20.02;3.78;;;;;;;;;;4980714;28;20411;-60
2022/10/28 03:28:47;;;;;;;11.25;3.58;;;;;;;;;;4984616;28;20065;-61
2022/10/28 03:31:14;;;;;;;10.65;3.45;;;;;;;;;;4994754;28;20037;-61
2022/10/28 03:33:39;;;;;;;12.55;3.88;;;;;;;;;;5012135;28;20033;-61
2022/10/28 03:36:05;;;;;;;9.77;3.13;;;;;;;;;;4982800;28;20048;-63
2022/10/28 03:38:30;;;;;;;13.23;3.58;;;;;;;;;;4989070;28;20045;-63
2022/10/28 03:40:55;;;;;;;10.27;3.33;;;;;;;;;;4974640;28;20508;-63
2022/10/28 03:43:21;;;;;;;7.15;3.20;;;;;;;;;;4980906;28;20038;-62
2022/10/28 03:45:47;;;;;;;8.85;3.38;;;;;;;;;;4993963;28;20113;-63
2022/10/28 03:48:12;;;;;;;9.95;3.83;;;;;;;;;;5014685;28;20068;-63
2022/10/28 03:50:38;;;;;;;10.95;3.47;;;;;;;;;;5006545;28;20442;-63
2022/10/28 03:53:03;;;;;;;10.93;3.58;;;;;;;;;;5011579;28;20629;-63
2022/10/28 03:55:29;;;;;;;11.68;3.40;;;;;;;;;;4983346;28;20097;-63
2022/10/28 03:57:54;;;;;;;14.50;3.58;;;;;;;;;;4986784;28;20499;-63
2022/10/28 04:00:19;;;;;;;7.03;3.20;;;;;;;;;;4993982;28;20476;-63
2022/10/28 04:02:52;;;;;;;11.88;3.33;;;;;;;;;;4978924;28;20110;-63
2022/10/28 04:05:18;;;;;;;10.43;3.38;;;;;;;;;;4984008;28;20038;-64
2022/10/28 04:07:43;;;;;;;7.65;3.13;;;;;;;;;;4997404;28;20088;-63
2022/10/28 04:10:09;;;;;;;9.88;3.53;;;;;;;;;;4994631;28;20110;-63
2022/10/28 04:12:35;;;;;;;11.02;3.47;;;;;;;;;;4998508;28;20030;-63
2022/10/28 04:15:00;;;;;;;13.98;4.10;;;;;;;;;;4999282;28;20368;-64
2022/10/28 04:17:25;;;;;;;9.73;3.70;;;;;;;;;;4997547;28;20038;-63
2022/10/28 04:19:51;;;;;;;8.95;3.85;;;;;;;;;;4997487;28;20034;-63
2022/10/28 04:22:16;;;;;;;11.05;4.15;;;;;;;;;;4979183;28;20037;-63
2022/10/28 04:24:42;;;;;;;11.40;3.90;;;;;;;;;;4987311;28;20479;-64
2022/10/28 04:27:07;;;;;;;10.15;3.55;;;;;;;;;;4979436;28;20037;-64
2022/10/28 04:29:33;;;;;;;13.82;3.95;;;;;;;;;;4980354;28;20069;-64
2022/10/28 04:31:58;;;;;;;13.75;3.88;;;;;;;;;;4990287;28;20034;-63
2022/10/28 04:34:24;;;;;;;16.55;3.90;;;;;;;;;;4999222;28;20038;-64
2022/10/28 04:36:50;;;;;;;11.68;3.50;;;;;;;;;;4989883;28;20408;-64
2022/10/28 04:39:16;;;;;;;13.55;4.03;;;;;;;;;;4979207;28;20455;-63
2022/10/28 04:41:41;;;;;;;11.27;3.58;;;;;;;;;;4980009;28;20065;-63
2022/10/28 04:44:07;;;;;;;8.32;3.47;;;;;;;;;;4979651;28;20134;-64
2022/10/28 04:46:32;;;;;;;10.40;3.92;;;;;;;;;;4989079;28;20041;-64
2022/10/28 04:48:58;;;;;;;9.85;3.85;;;;;;;;;;4997455;28;20034;-63
2022/10/28 04:51:23;;;;;;;11.57;3.75;;;;;;;;;;4979177;28;20027;-63
2022/10/28 04:53:48;;;;;;;13.80;4.15;;;;;;;;;;4981726;28;20133;-64
2022/10/28 04:56:14;;;;;;;10.63;3.88;;;;;;;;;;4994855;28;20030;-64
2022/10/28 04:58:40;;;;;;;12.48;4.10;;;;;;;;;;4993891;28;20034;-63
2022/10/28 05:01:06;;;;;;;11.63;3.67;;;;;;;;;;4995190;28;20038;-64
2022/10/28 05:03:32;;;;;;;15.20;4.13;;;;;;;;;;4995512;28;20088;-64
2022/10/28 05:05:58;;;;;;;14.27;4.72;;;;;;;;;;4997400;28;20476;-64
2022/10/28 05:08:23;;;;;;;14.52;4.40;;;;;;;;;;4984926;28;20097;-64
2022/10/28 05:10:49;;;;;;;11.98;4.50;;;;;;;;;;4989321;28;20040;-66
2022/10/28 05:13:16;;;;;;;9.30;4.53;;;;;;;;;;4995751;28;20113;-64
2022/10/28 05:15:41;;;;;;;11.45;4.40;;;;;;;;;;4993400;28;20027;-64
2022/10/28 05:18:07;;;;;;;13.77;3.85;;;;;;;;;;4975409;28;20027;-63
2022/10/28 05:20:32;;;;;;;15.20;4.55;;;;;;;;;;4982908;28;20530;-64
2022/10/28 05:22:57;;;;;;;9.50;4.20;;;;;;;;;;4974533;28;20047;-64
2022/10/28 05:25:23;;;;;;;12.40;4.22;;;;;;;;;;4976642;28;20030;-64
2022/10/28 05:27:49;;;;;;;14.15;4.50;;;;;;;;;;4981078;28;20471;-63
2022/10/28 05:30:14;;;;;;;10.05;4.13;;;;;;;;;;4989623;28;20479;-64
2022/10/28 05:32:40;;;;;;;9.27;4.20;;;;;;;;;;4986844;28;20084;-63
2022/10/28 05:35:06;;;;;;;11.13;4.30;;;;;;;;;;4992945;28;20570;-64
2022/10/28 05:37:32;;;;;;;11.50;4.10;;;;;;;;;;4978619;28;20117;-63
2022/10/28 05:39:57;;;;;;;9.75;4.40;;;;;;;;;;4984974;28;20026;-64
2022/10/28 05:42:23;;;;;;;11.52;4.88;;;;;;;;;;4976102;28;20109;-63
2022/10/28 05:44:48;;;;;;;17.42;4.70;;;;;;;;;;4975609;28;20041;-63
2022/10/28 05:47:13;;;;;;;11.95;4.32;;;;;;;;;;4993241;28;20121;-64
2022/10/28 05:49:39;;;;;;;14.25;4.82;;;;;;;;;;4987034;28;20038;-63
2022/10/28 05:52:04;;;;;;;13.93;4.93;;;;;;;;;;4982785;28;20030;-64
2022/10/28 05:54:29;;;;;;;17.27;5.13;;;;;;;;;;4994916;28;20038;-64
2022/10/28 05:56:55;;;;;;;12.85;5.10;;;;;;;;;;4978516;28;20031;-64
2022/10/28 05:59:20;;;;;;;16.75;4.97;;;;;;;;;;4981732;28;20085;-63
2022/10/28 06:01:46;;;;;;;16.20;4.57;;;;;;;;;;4975304;28;20472;-64
2022/10/28 06:04:11;;;;;;;12.52;4.90;;;;;;;;;;4990779;28;20027;-64
2022/10/28 06:06:36;;;;;;;15.82;4.78;;;;;;;;;;4985376;28;20039;-64
2022/10/28 06:09:02;;;;;;;13.95;4.63;;;;;;;;;;4981805;28;20387;-63
2022/10/28 06:11:28;;;;;;;12.23;4.55;;;;;;;;;;4991676;28;20070;-64
2022/10/28 06:13:53;;;;;;;13.18;4.85;;;;;;;;;;4974498;28;20038;-64
2022/10/28 06:16:19;;;;;;;15.77;4.65;;;;;;;;;;4975214;28;20043;-64
2022/10/28 06:18:44;;;;;;;11.68;4.45;;;;;;;;;;4987259;28;20040;-64
2022/10/28 06:21:10;;;;;;;15.43;4.57;;;;;;;;;;4973713;28;20472;-64
2022/10/28 06:23:35;;;;;;;13.98;4.75;;;;;;;;;;4974641;28;20055;-64
2022/10/28 06:26:02;;;;;;;17.38;4.35;;;;;;;;;;4974727;28;20070;-64
2022/10/28 06:28:28;;;;;;;10.82;4.47;;;;;;;;;;4976271;28;20043;-65
2022/10/28 06:30:53;;;;;;;17.20;4.43;;;;;;;;;;4979365;28;20062;-63
2022/10/28 06:33:19;;;;;;;18.83;4.53;;;;;;;;;;4982727;28;20056;-64
2022/10/28 06:35:45;;;;;;;14.65;4.80;;;;;;;;;;4979356;28;20073;-64
2022/10/28 06:38:10;;;;;;;11.15;4.82;;;;;;;;;;4992983;28;20513;-63
2022/10/28 06:40:35;;;;;;;10.07;4.00;;;;;;;;;;4989490;28;20033;-63
2022/10/28 06:43:03;;;;;;;10.77;4.80;;;;;;;;;;4974025;28;20037;-63
2022/10/28 06:45:30;;;;;;;15.48;5.22;;;;;;;;;;4984342;28;20480;-63
2022/10/28 06:47:57;;;;;;;13.80;6.88;;;;;;;;;;4992321;28;20168;-63
2022/10/28 06:50:23;;;;;;;12.20;4.95;;;;;;;;;;4990621;28;20054;-63
2022/10/28 06:52:49;;;;;;;9.90;4.25;;;;;;;;;;4993772;28;20471;-64
2022/10/28 06:55:14;;;;;;;12.85;4.30;;;;;;;;;;4990870;28;20038;-63
2022/10/28 06:57:39;;;;;;;11.70;4.57;;;;;;;;;;4974251;28;20460;-63
2022/10/28 07:00:05;;;;;;;10.70;4.88;;;;;;;;;;4977491;28;20033;-64
2022/10/28 07:02:31;;;;;;;12.30;4.65;;;;;;;;;;4996466;28;20033;-64
2022/10/28 07:04:56;;;;;;;14.90;4.70;;;;;;;;;;4991516;28;20042;-64
2022/10/28 07:07:21;;;;;;;16.77;4.80;;;;;;;;;;4993570;28;20037;-64
2022/10/28 07:09:47;;;;;;;12.85;4.85;;;;;;;;;;4993286;28;20472;-63
2022/10/28 07:12:12;;;;;;;10.80;4.35;;;;;;;;;;4992789;28;20038;-63
2022/10/28 07:14:38;;;;;;;15.35;5.03;;;;;;;;;;4993329;28;20030;-64
2022/10/28 07:17:03;;;;;;;17.52;5.30;;;;;;;;;;4986146;28;20031;-64
2022/10/28 07:19:28;;;;;;;11.75;5.28;;;;;;;;;;4975963;28;20030;-64
2022/10/28 07:21:54;;;;;;;12.73;4.70;;;;;;;;;;4980700;28;20515;-64
2022/10/28 07:24:19;;;;;;;13.90;5.22;;;;;;;;;;4993335;28;20050;-63
2022/10/28 07:26:48;;;;;;;15.55;4.53;;;;;;;;;;4979511;28;20106;-63
2022/10/28 07:29:13;;;;;;;12.98;4.97;;;;;;;;;;4989089;28;20038;-64
2022/10/28 07:31:39;;;;;;;15.35;5.00;;;;;;;;;;4980179;28;20046;-64
2022/10/28 07:34:04;;;;;;;12.75;4.38;;;;;;;;;;4984683;28;20080;-64
2022/10/28 07:36:30;;;;;;;14.70;5.15;;;;;;;;;;4980609;28;20041;-64
2022/10/28 07:38:55;;;;;;;13.93;4.95;;;;;;;;;;4973154;28;20091;-64
2022/10/28 07:41:21;;;;;;;16.35;5.18;;;;;;;;;;4978607;28;20109;-64
2022/10/28 07:43:47;;;;;;;12.15;5.47;;;;;;;;;;4978717;28;20042;-63
2022/10/28 07:46:13;;;;;;;13.10;4.80;;;;;;;;;;4990357;28;20452;-64
2022/10/28 07:48:39;;;;;;;14.27;5.32;;;;;;;;;;4973616;28;20066;-63
2022/10/28 07:51:06;;;;;;;14.82;4.85;;;;;;;;;;4974021;28;20031;-64
2022/10/28 07:53:32;;;;;;;15.10;5.03;;;;;;;;;;4973520;28;20110;-64
2022/10/28 07:56:02;;;;;;;12.63;5.00;;;;;;;;;;4979089;28;20118;-63
2022/10/28 07:58:29;;;;;;;18.35;5.00;;;;;;;;;;4975443;28;20042;-64
2022/10/28 08:00:54;;;;;;;17.23;5.20;;;;;;;;;;4992728;28;20034;-64
2022/10/28 08:03:20;;;;;;;14.85;5.03;;;;;;;;;;4976279;28;20364;-64
2022/10/28 08:05:46;;;;;;;12.55;4.57;;;;;;;;;;4992873;28;20085;-64
2022/10/28 08:08:12;;;;;;;13.15;4.82;;;;;;;;;;4975860;28;20047;-64
2022/10/28 08:10:37;;;;;;;12.80;4.57;;;;;;;;;;4992354;28;20121;-63
2022/10/28 08:13:03;;;;;;;13.20;4.65;;;;;;;;;;4986949;28;20046;-63
2022/10/28 08:15:28;;;;;;;19.17;4.97;;;;;;;;;;4989723;28;20061;-63
2022/10/28 08:17:55;;;;;;;16.15;4.95;;;;;;;;;;4995076;28;20054;-63
2022/10/28 08:20:21;;;;;;;23.58;4.95;;;;;;;;;;4990990;28;20030;-63
2022/10/28 08:22:47;;;;;;;23.60;4.95;;;;;;;;;;4987078;28;20081;-63
2022/10/28 08:25:12;;;;;;;16.17;5.30;;;;;;;;;;4972649;28;20051;-64
2022/10/28 08:27:39;;;;;;;15.45;4.90;;;;;;;;;;4981656;28;20041;-64
2022/10/28 08:30:05;;;;;;;20.70;4.70;;;;;;;;;;4972488;28;20031;-64
2022/10/28 08:32:30;;;;;;;11.02;4.85;;;;;;;;;;4977280;28;20073;-65
2022/10/28 08:34:56;;;;;;;12.63;5.22;;;;;;;;;;4988800;28;20053;-64
2022/10/28 08:37:21;;;;;;;13.15;4.63;;;;;;;;;;4989088;28;20521;-64
2022/10/28 08:39:46;;;;;;;14.52;4.38;;;;;;;;;;4983366;28;20443;-64
2022/10/28 08:42:42;;;;;;;14.02;4.60;;;;;;;;;;4976005;28;20066;-64
2022/10/28 08:45:28;;;;;;;13.57;4.57;;;;;;;;;;4975649;28;20082;-64
2022/10/28 08:48:12;;;;;;;14.65;4.68;;;;;;;;;;4976814;28;20039;-63
2022/10/28 08:50:45;;;;;;;15.57;4.30;;;;;;;;;;4976124;28;20035;-63
2022/10/28 08:53:25;;;;;;;19.23;4.50;;;;;;;;;;4979573;28;20042;-64
2022/10/28 08:55:55;;;;;;;12.32;3.83;;;;;;;;;;4976712;28;20030;-63
2022/10/28 08:58:33;;;;;;;15.43;4.10;;;;;;;;;;4974684;28;20043;-64
2022/10/28 09:01:01;;;;;;;12.82;4.32;;;;;;;;;;4976008;28;20035;-63
2022/10/28 09:03:35;;;;;;;11.95;3.97;;;;;;;;;;4979172;28;20048;-64
2022/10/28 09:06:09;;;;;;;13.65;4.10;;;;;;;;;;4981857;28;20113;-64
2022/10/28 09:08:38;;;;;;;15.60;4.35;;;;;;;;;;4975492;28;20117;-64
2022/10/28 09:11:09;;;;;;;13.57;4.28;;;;;;;;;;4973595;28;21937;-63
2022/10/28 09:13:41;;;;;;;16.02;4.22;;;;;;;;;;4976628;28;20038;-63
2022/10/28 09:16:19;;;;;;;14.32;4.18;;;;;;;;;;4975509;28;20053;-64
2022/10/28 09:18:53;;;;;;;13.48;4.03;;;;;;;;;;4997925;28;20039;-64
2022/10/28 09:21:44;;;;;;;16.60;4.30;;;;;;;;;;4993730;28;20109;-63
2022/10/28 09:24:40;;;;;;;12.70;4.22;;;;;;;;;;4991926;28;20073;-63
2022/10/28 09:27:54;;;;;;;12.18;3.70;;;;;;;;;;4986734;28;20475;-63
2022/10/28 09:30:30;;;;;;;13.50;4.25;;;;;;;;;;4978394;28;20039;-64
2022/10/28 09:33:07;;;;;;;11.57;3.72;;;;;;;;;;4975754;28;20496;-64
2022/10/28 09:35:40;;;;;;;13.82;3.65;;;;;;;;;;4975746;28;20035;-64
2022/10/28 09:38:17;;;;;;;15.20;4.40;;;;;;;;;;4977587;28;20131;-63
2022/10/28 09:40:49;;;;;;;13.25;4.10;;;;;;;;;;4986200;28;20037;-63
2022/10/28 09:43:14;;;;;;;19.08;3.72;;;;;;;;;;4974874;28;20088;-64
2022/10/28 09:45:44;;;;;;;14.77;4.70;;;;;;;;;;4975488;28;20039;-64
2022/10/28 09:48:19;;;;;;;13.88;3.63;;;;;;;;;;4991482;28;20034;-64
2022/10/28 09:50:48;;;;;;;13.93;3.70;;;;;;;;;;4988370;28;20042;-64
2022/10/28 09:53:27;;;;;;;11.82;3.50;;;;;;;;;;4973980;28;20058;-64
2022/10/28 09:55:52;;;;;;;13.50;3.80;;;;;;;;;;4995176;28;20089;-64
2022/10/28 09:58:18;;;;;;;13.13;3.80;;;;;;;;;;4985039;28;20038;-64
2022/10/28 10:00:44;;;;;;;19.02;3.90;;;;;;;;;;4993658;28;20053;-64
2022/10/28 10:03:09;;;;;;;14.85;3.70;;;;;;;;;;4988657;28;20042;-63
2022/10/28 10:05:43;;;;;;;15.27;3.60;;;;;;;;;;4978977;28;20170;-64
2022/10/28 10:08:13;;;;;;;13.05;3.70;;;;;;;;;;4979749;28;20030;-63
2022/10/28 10:11:03;;;;;;;11.32;3.75;;;;;;;;;;4977935;28;20039;-65
2022/10/28 10:13:35;;;;;;;12.02;3.65;;;;;;;;;;4987446;28;20035;-65
2022/10/28 10:16:08;;;;;;;15.30;4.07;;;;;;;;;;4974663;28;20490;-64
2022/10/28 10:18:35;;;;;;;14.40;3.53;;;;;;;;;;4988071;28;20037;-64
2022/10/28 10:21:01;;;;;;;17.58;3.60;;;;;;;;;;5006582;28;20378;-64
2022/10/28 10:23:35;;;;;;;13.43;4.40;;;;;;;;;;4994095;28;20081;-63
2022/10/28 10:26:15;;;;;;;17.65;3.95;;;;;;;;;;4995165;28;20112;-64
2022/10/28 10:28:49;;;;;;;11.15;3.78;;;;;;;;;;4994809;28;20505;-63
2022/10/28 10:31:19;;;;;;;17.27;3.92;;;;;;;;;;4994360;28;20043;-64
2022/10/28 10:33:49;;;;;;;14.85;3.85;;;;;;;;;;4995325;28;20038;-63
2022/10/28 10:36:19;;;;;;;15.48;3.80;;;;;;;;;;4992483;28;20037;-65
2022/10/28 10:38:54;;;;;;;18.50;4.00;;;;;;;;;;4979972;28;20026;-65
2022/10/28 10:41:49;;;;;;;17.95;4.05;;;;;;;;;;4991024;28;20065;-64
2022/10/28 10:44:20;;;;;;;11.50;3.85;;;;;;;;;;4973202;28;20043;-65
2022/10/28 10:47:06;;;;;;;14.40;3.60;;;;;;;;;;4985514;28;20034;-64
2022/10/28 10:49:33;;;;;;;13.65;3.55;;;;;;;;;;4981880;28;20057;-65
2022/10/28 10:52:06;;;;;;;13.63;3.80;;;;;;;;;;4974517;28;20105;-64
2022/10/28 10:54:34;;;;;;;12.05;3.90;;;;;;;;;;4973330;28;20033;-65
2022/10/28 10:57:27;;;;;;;24.77;3.75;;;;;;;;;;4987519;28;20037;-64
2022/10/28 10:59:54;;;;;;;13.63;3.60;;;;;;;;;;4988783;28;20408;-65
2022/10/28 11:02:22;;;;;;;11.85;3.08;;;;;;;;;;4973773;28;20038;-64
2022/10/28 11:04:50;;;;;;;14.57;3.58;;;;;;;;;;4987485;28;20088;-64
2022/10/28 11:07:16;;;;;;;13.40;3.78;;;;;;;;;;4978860;28;20058;-64
2022/10/28 11:09:42;;;;;;;13.48;3.35;;;;;;;;;;4973963;28;20035;-64
2022/10/28 11:12:34;;;;;;;12.75;3.50;;;;;;;;;;4979677;28;20117;-63
2022/10/28 11:15:29;;;;;;;15.80;3.95;;;;;;;;;;4982747;28;20045;-63
2022/10/28 11:18:15;;;;;;;14.02;4.00;;;;;;;;;;4973439;28;20052;-64
2022/10/28 11:21:02;;;;;;;15.70;3.35;;;;;;;;;;4991860;28;20476;-64
2022/10/28 11:23:27;;;;;;;15.00;3.80;;;;;;;;;;4985001;28;20282;-63
2022/10/28 11:25:58;;;;;;;16.33;3.67;;;;;;;;;;4986569;28;20030;-64
2022/10/28 11:28:54;;;;;;;16.42;3.92;;;;;;;;;;4992053;28;20030;-63
2022/10/28 11:31:36;;;;;;;13.52;3.78;;;;;;;;;;4982600;28;20089;-64
2022/10/28 11:34:10;;;;;;;13.70;3.60;;;;;;;;;;4976749;28;20031;-64
2022/10/28 11:36:54;;;;;;;14.00;3.60;;;;;;;;;;4988672;28;20031;-64
2022/10/28 11:39:28;;;;;;;15.23;3.63;;;;;;;;;;4987998;28;20034;-64
2022/10/28 11:42:23;;;;;;;17.30;3.38;;;;;;;;;;4992511;28;20085;-64
2022/10/28 11:44:57;;;;;;;12.00;3.60;;;;;;;;;;4999990;28;20034;-63
2022/10/28 11:47:39;;;;;;;21.80;3.80;;;;;;;;;;4999011;28;20380;-63
2022/10/28 11:50:21;;;;;;;17.35;4.00;;;;;;;;;;4993438;28;20093;-64
2022/10/28 11:53:05;;;;;;;19.52;3.78;;;;;;;;;;4975549;28;20122;-64
2022/10/28 11:55:55;;;;;;;13.07;3.72;;;;;;;;;;4991069;28;20043;-65
2022/10/28 11:58:42;;;;;;;12.45;3.25;;;;;;;;;;4973069;28;20042;-65
2022/10/28 12:01:57;;;;;;;12.25;3.42;;;;;;;;;;4979850;28;20042;-65
2022/10/28 12:04:32;;;;;;;14.10;3.72;;;;;;;;;;5014574;28;20049;-65
2022/10/28 12:07:09;;;;;;;11.13;3.67;;;;;;;;;;4981784;28;20051;-65
2022/10/28 12:09:55;;;;;;;14.75;4.18;;;;;;;;;;4975937;28;20584;-64
2022/10/28 12:12:47;;;;;;;16.02;3.50;;;;;;;;;;4976495;28;20043;-65
2022/10/28 12:15:16;;;;;;;16.17;3.60;;;;;;;;;;4994101;28;20468;-64
2022/10/28 12:17:48;;;;;;;15.80;3.77;;;;;;;;;;4986369;28;20041;-64
2022/10/28 12:20:32;;;;;;;12.98;3.45;;;;;;;;;;4995304;28;20026;-64
2022/10/28 12:23:01;;;;;;;15.27;3.55;;;;;;;;;;4996921;28;20049;-64
2022/10/28 12:25:32;;;;;;;15.85;3.70;;;;;;;;;;4983585;28;20030;-64
2022/10/28 12:28:03;;;;;;;11.30;3.50;;;;;;;;;;4996292;28;20104;-65
2022/10/28 12:30:33;;;;;;;12.40;3.70;;;;;;;;;;4994944;28;20152;-64
2022/10/28 12:33:06;;;;;;;15.65;3.78;;;;;;;;;;4993509;28;20042;-64
2022/10/28 12:35:35;;;;;;;13.93;3.80;;;;;;;;;;4990617;28;20078;-65
2022/10/28 12:38:13;;;;;;;16.23;3.60;;;;;;;;;;4993780;28;20045;-64
2022/10/28 12:40:50;;;;;;;13.98;3.75;;;;;;;;;;4995063;28;20331;-64
2022/10/28 12:43:23;;;;;;;10.65;3.90;;;;;;;;;;4977541;28;20098;-65
2022/10/28 12:45:53;;;;;;;14.60;3.90;;;;;;;;;;4989413;28;20034;-64
2022/10/28 12:48:29;;;;;;;16.42;4.32;;;;;;;;;;4989434;28;20027;-64
2022/10/28 12:51:02;;;;;;;14.45;3.67;;;;;;;;;;4981376;28;20034;-65
2022/10/28 12:53:38;;;;;;;13.27;3.80;;;;;;;;;;4996620;28;20523;-64
2022/10/28 12:56:13;;;;;;;12.10;3.83;;;;;;;;;;4994733;28;20030;-65
2022/10/28 12:58:50;;;;;;;14.90;3.95;;;;;;;;;;4990990;28;20031;-64
2022/10/28 13:01:18;;;;;;;15.68;3.95;;;;;;;;;;4975579;28;20114;-64
2022/10/28 13:03:43;;;;;;;15.43;3.33;;;;;;;;;;4979245;28;20038;-64
2022/10/28 13:06:40;;;;;;;12.18;3.35;;;;;;;;;;4975846;28;20134;-65
2022/10/28 13:09:22;;;;;;;23.60;4.07;;;;;;;;;;4980266;28;20034;-64
2022/10/28 13:11:58;;;;;;;12.30;3.63;;;;;;;;;;4995711;28;20112;-64
2022/10/28 13:14:33;;;;;;;18.25;4.13;;;;;;;;;;4979371;28;20527;-65
2022/10/28 13:17:27;;;;;;;13.10;3.42;;;;;;;;;;4992893;28;20499;-65
2022/10/28 13:20:11;;;;;;;11.43;3.53;;;;;;;;;;4990139;28;20065;-64
2022/10/28 13:23:04;;;;;;;13.82;3.80;;;;;;;;;;4977607;28;20038;-64
2022/10/28 13:25:54;;;;;;;14.80;3.90;;;;;;;;;;4983648;28;20038;-65
2022/10/28 13:28:23;;;;;;;12.48;3.47;;;;;;;;;;4975782;28;20492;-65
2022/10/28 13:31:14;;;;;;;15.07;3.45;;;;;;;;;;4975818;28;20097;-65
2022/10/28 13:34:06;;;;;;;17.00;3.80;;;;;;;;;;4977529;28;20500;-65
2022/10/28 13:36:39;;;;;;;17.50;3.88;;;;;;;;;;4974634;28;20043;-64
2022/10/28 13:39:25;;;;;;;16.90;3.90;;;;;;;;;;4991944;28;20034;-64
2022/10/28 13:42:13;;;;;;;15.73;3.95;;;;;;;;;;4975482;28;20035;-65
2022/10/28 13:45:02;;;;;;;18.83;3.90;;;;;;;;;;4983402;28;20069;-64
2022/10/28 13:47:30;;;;;;;13.05;3.63;;;;;;;;;;4974128;28;20137;-64
2022/10/28 13:50:04;;;;;;;13.52;4.07;;;;;;;;;;4993771;28;20081;-64
2022/10/28 13:52:30;;;;;;;16.02;3.80;;;;;;;;;;4992899;28;20042;-64
2022/10/28 13:54:59;;;;;;;17.67;3.85;;;;;;;;;;4979188;28;20035;-67
2022/10/28 13:57:26;;;;;;;18.65;4.05;;;;;;;;;;4993372;28;20045;-64
2022/10/28 14:00:06;;;;;;;16.00;3.80;;;;;;;;;;4994256;28;20038;-64
2022/10/28 14:02:37;;;;;;;16.63;4.10;;;;;;;;;;4992940;28;20034;-65
2022/10/28 14:05:11;;;;;;;19.30;4.00;;;;;;;;;;4979299;28;20034;-65
2022/10/28 14:07:57;;;;;;;11.48;3.88;;;;;;;;;;4991924;28;20034;-65
2022/10/28 14:10:28;;;;;;;12.32;3.75;;;;;;;;;;4974550;28;20039;-64
2022/10/28 14:13:17;;;;;;;17.10;3.63;;;;;;;;;;4978828;28;20031;-65
2022/10/28 14:15:44;;;;;;;15.82;4.05;;;;;;;;;;4996730;28;20054;-64
2022/10/28 14:18:12;;;;;;;16.77;4.30;;;;;;;;;;4993368;28;20074;-64
2022/10/28 14:20:42;;;;;;;17.08;4.47;;;;;;;;;;4993965;28;20054;-64
2022/10/28 14:23:19;;;;;;;10.77;4.07;;;;;;;;;;4992951;28;20117;-64
2022/10/28 14:25:52;;;;;;;14.70;3.80;;;;;;;;;;4994012;28;20463;-64
2022/10/28 14:28:26;;;;;;;11.20;3.60;;;;;;;;;;4976842;28;20043;-64
2022/10/28 14:31:13;;;;;;;11.77;4.28;;;;;;;;;;4974632;28;20062;-64
2022/10/28 14:33:41;;;;;;;14.52;3.40;;;;;;;;;;4985250;28;20193;-64
2022/10/28 14:36:09;;;;;;;14.80;3.83;;;;;;;;;;4987858;28;20034;-64
2022/10/28 14:38:58;;;;;;;15.77;3.78;;;;;;;;;;4976615;28;20050;-65
2022/10/28 14:41:36;;;;;;;15.00;3.97;;;;;;;;;;4993149;28;20034;-64
2022/10/28 14:44:07;;;;;;;17.05;3.70;;;;;;;;;;4994517;28;20042;-64
2022/10/28 14:46:57;;;;;;;16.45;3.97;;;;;;;;;;4974523;28;20034;-64
2022/10/28 14:49:29;;;;;;;19.13;3.83;;;;;;;;;;4987876;28;20483;-64
2022/10/28 14:51:56;;;;;;;14.20;3.88;;;;;;;;;;4993280;28;20038;-64
2022/10/28 14:54:31;;;;;;;16.73;3.72;;;;;;;;;;4975908;28;20092;-65
2022/10/28 14:56:56;;;;;;;15.25;3.80;;;;;;;;;;4974227;28;20037;-65
2022/10/28 14:59:26;;;;;;;18.45;4.10;;;;;;;;;;4991799;28;20038;-64